Time;durP1;ratioP1;P1;durP2;ratioP2;P2;SDS_P1;SDS_P2;PMS_P1;PMS_P2;Temp;Humidity;BMP_temperature;BMP_pressure;BME280_temperature;BME280_humidity;BME280_pressure;Samples;Min_cycle;Max_cycle;Signal;HPM_P1;HPM_P2
2022/03/27 00:01:42;;;;;;;;;;;21.30;40.30;;;;;;5076232;28;19925;-40
2022/03/27 00:04:09;;;;;;;;;;;21.30;40.30;;;;;;5058967;28;19928;-38
2022/03/27 00:06:36;;;;;;;;;;;21.30;40.20;;;;;;5056836;28;20011;-40
2022/03/27 00:09:03;;;;;;;;;;;21.30;40.20;;;;;;5056544;28;20274;-39
2022/03/27 00:11:30;;;;;;;;;;;21.30;40.20;;;;;;5056213;28;19925;-38
2022/03/27 00:14:00;;;;;;;;;;;21.30;40.20;;;;;;5057310;28;19925;-39
2022/03/27 00:16:27;;;;;;;;;;;21.30;40.30;;;;;;5056136;28;19976;-40
2022/03/27 00:18:55;;;;;;;;;;;21.30;40.30;;;;;;5056335;28;19931;-39
2022/03/27 00:21:22;;;;;;;;;;;21.30;40.20;;;;;;5054692;28;19925;-39
2022/03/27 00:23:50;;;;;;;;;;;21.30;40.20;;;;;;5054660;28;20432;-40
2022/03/27 00:26:17;;;;;;;;;;;21.30;40.30;;;;;;5055956;28;19931;-40
2022/03/27 00:28:44;;;;;;;;;;;21.30;40.30;;;;;;5056218;28;19979;-40
2022/03/27 00:31:11;;;;;;;;;;;21.30;40.20;;;;;;5055864;28;19929;-39
2022/03/27 00:33:39;;;;;;;;;;;21.30;40.20;;;;;;5038321;28;19925;-38
2022/03/27 00:36:07;;;;;;;;;;;21.30;40.20;;;;;;5055891;28;20338;-40
2022/03/27 00:38:34;;;;;;;;;;;21.30;40.20;;;;;;5055700;28;19925;-40
2022/03/27 00:41:01;;;;;;;;;;;21.30;40.20;;;;;;5038351;28;19979;-40
2022/03/27 00:43:28;;;;;;;;;;;21.30;40.30;;;;;;5038436;28;19924;-42
2022/03/27 00:45:56;;;;;;;;;;;21.30;40.30;;;;;;5055905;28;20263;-40
2022/03/27 00:48:23;;;;;;;;;;;21.20;40.20;;;;;;5054710;28;20346;-41
2022/03/27 00:50:51;;;;;;;;;;;21.20;40.20;;;;;;5053160;28;19935;-39
2022/03/27 00:53:19;;;;;;;;;;;21.20;40.20;;;;;;5055446;28;19931;-40
2022/03/27 00:55:46;;;;;;;;;;;21.20;40.20;;;;;;5055743;28;19929;-40
2022/03/27 00:58:13;;;;;;;;;;;21.20;40.20;;;;;;5038093;28;20356;-39
2022/03/27 01:00:46;;;;;;;;;;;21.20;40.20;;;;;;5055232;28;19928;-41
2022/03/27 01:03:14;;;;;;;;;;;21.20;40.20;;;;;;5055499;28;20054;-39
2022/03/27 01:05:42;;;;;;;;;;;21.20;40.20;;;;;;5054876;28;19932;-40
2022/03/27 01:08:10;;;;;;;;;;;21.20;40.20;;;;;;5055415;28;19928;-40
2022/03/27 01:10:38;;;;;;;;;;;21.20;40.20;;;;;;5055106;28;20396;-41
2022/03/27 01:13:08;;;;;;;;;;;21.20;40.20;;;;;;5055359;28;19946;-41
2022/03/27 01:15:39;;;;;;;;;;;21.30;40.30;;;;;;5055347;28;19968;-40
2022/03/27 01:18:07;;;;;;;;;;;21.20;40.20;;;;;;5054190;28;19964;-44
2022/03/27 01:20:35;;;;;;;;;;;21.20;40.20;;;;;;5056659;28;19996;-47
2022/03/27 01:23:07;;;;;;;;;;;21.20;40.20;;;;;;5074871;28;19967;-41
2022/03/27 01:25:35;;;;;;;;;;;21.20;40.20;;;;;;5057383;28;19931;-45
2022/03/27 01:28:02;;;;;;;;;;;21.20;40.20;;;;;;5075564;28;19931;-45
2022/03/27 01:30:29;;;;;;;;;;;21.20;40.30;;;;;;5057002;28;20396;-45
2022/03/27 01:32:57;;;;;;;;;;;21.20;40.30;;;;;;5074874;28;19972;-43
2022/03/27 01:35:24;;;;;;;;;;;21.20;40.20;;;;;;5073190;28;19925;-39
2022/03/27 01:37:51;;;;;;;;;;;21.20;40.20;;;;;;5074100;28;20411;-40
2022/03/27 01:40:18;;;;;;;;;;;21.20;40.20;;;;;;5074722;28;19928;-41
2022/03/27 01:42:45;;;;;;;;;;;21.20;40.20;;;;;;5074472;28;19964;-41
2022/03/27 01:45:12;;;;;;;;;;;21.20;40.20;;;;;;5074427;28;19924;-41
2022/03/27 01:47:39;;;;;;;;;;;21.20;40.20;;;;;;5074349;28;20400;-40
2022/03/27 01:50:07;;;;;;;;;;;21.20;40.30;;;;;;5074636;28;20015;-42
2022/03/27 01:52:34;;;;;;;;;;;21.20;40.30;;;;;;5056913;28;20337;-41
2022/03/27 01:55:01;;;;;;;;;;;21.20;40.20;;;;;;5054586;28;20003;-39
2022/03/27 01:57:28;;;;;;;;;;;21.20;40.20;;;;;;5054241;28;20015;-40
2022/03/27 01:59:55;;;;;;;;;;;21.20;40.20;;;;;;5054141;28;20019;-42
2022/03/27 02:02:25;;;;;;;;;;;21.20;40.20;;;;;;5054021;28;19925;-40
2022/03/27 02:04:53;;;;;;;;;;;21.20;40.20;;;;;;5054123;28;20024;-42
2022/03/27 02:07:22;;;;;;;;;;;21.20;40.20;;;;;;5066436;28;19928;-39
2022/03/27 02:09:49;;;;;;;;;;;21.20;40.20;;;;;;5074007;28;19967;-41
2022/03/27 02:12:16;;;;;;;;;;;21.20;40.20;;;;;;5073945;28;19925;-42
2022/03/27 02:14:43;;;;;;;;;;;21.20;40.30;;;;;;5073978;28;20350;-40
2022/03/27 02:17:10;;;;;;;;;;;21.20;40.20;;;;;;5074176;28;19928;-40
2022/03/27 02:19:37;;;;;;;;;;;21.20;40.30;;;;;;5073768;28;20430;-46
2022/03/27 02:22:04;;;;;;;;;;;21.20;40.30;;;;;;5072039;28;19947;-39
2022/03/27 02:24:31;;;;;;;;;;;21.10;40.10;;;;;;5073836;28;20384;-40
2022/03/27 02:27:00;;;;;;;;;;;21.20;40.20;;;;;;5073085;28;20127;-44
2022/03/27 02:29:27;;;;;;;;;;;21.20;40.20;;;;;;5074066;28;19924;-38
2022/03/27 02:31:54;;;;;;;;;;;21.10;40.20;;;;;;5073620;28;19968;-45
2022/03/27 02:34:21;;;;;;;;;;;21.10;40.20;;;;;;5073682;28;19924;-47
2022/03/27 02:36:48;;;;;;;;;;;21.10;40.20;;;;;;5066827;28;20019;-45
2022/03/27 02:39:15;;;;;;;;;;;21.10;40.20;;;;;;5053551;28;19979;-41
2022/03/27 02:41:45;;;;;;;;;;;21.10;40.20;;;;;;5054155;28;19931;-43
2022/03/27 02:44:12;;;;;;;;;;;21.10;40.20;;;;;;5053538;28;20322;-44
2022/03/27 02:46:40;;;;;;;;;;;21.10;40.20;;;;;;5052744;28;20019;-38
2022/03/27 02:49:07;;;;;;;;;;;21.10;40.20;;;;;;5053810;28;19925;-42
2022/03/27 02:51:34;;;;;;;;;;;21.10;40.20;;;;;;5055486;28;19950;-42
2022/03/27 02:54:01;;;;;;;;;;;21.10;40.20;;;;;;5073776;28;19925;-40
2022/03/27 02:56:28;;;;;;;;;;;21.10;40.20;;;;;;5073455;28;19924;-39
2022/03/27 02:58:55;;;;;;;;;;;21.10;40.20;;;;;;5073734;28;19925;-38
2022/03/27 03:01:21;;;;;;;;;;;21.10;40.20;;;;;;5074326;28;20360;-40
2022/03/27 03:03:49;;;;;;;;;;;21.10;40.20;;;;;;5073368;28;20392;-40
2022/03/27 03:06:17;;;;;;;;;;;21.10;40.20;;;;;;5073310;28;19924;-40
2022/03/27 03:08:44;;;;;;;;;;;21.10;40.20;;;;;;5072479;28;20054;-43
2022/03/27 03:11:13;;;;;;;;;;;21.10;40.20;;;;;;5073312;28;19928;-40
2022/03/27 03:13:40;;;;;;;;;;;21.10;40.20;;;;;;5073315;28;19964;-39
2022/03/27 03:16:08;;;;;;;;;;;21.10;40.20;;;;;;5073262;28;19924;-39
2022/03/27 03:18:35;;;;;;;;;;;21.10;40.20;;;;;;5073250;28;19925;-41
2022/03/27 03:21:02;;;;;;;;;;;21.10;40.20;;;;;;5072808;28;19954;-39
2022/03/27 03:23:29;;;;;;;;;;;21.10;40.20;;;;;;5071905;28;20354;-39
2022/03/27 03:25:56;;;;;;;;;;;21.10;40.20;;;;;;5073452;28;20319;-39
2022/03/27 03:28:33;;;;;;;;;;;21.10;40.20;;;;;;5073156;28;20396;-40
2022/03/27 03:31:01;;;;;;;;;;;21.10;40.20;;;;;;5073080;28;19968;-40
2022/03/27 03:33:28;;;;;;;;;;;21.10;40.20;;;;;;5072994;28;19924;-40
2022/03/27 03:35:55;;;;;;;;;;;21.10;40.20;;;;;;5073333;28;19947;-39
2022/03/27 03:38:22;;;;;;;;;;;21.10;40.20;;;;;;5071374;28;19947;-39
2022/03/27 03:40:49;;;;;;;;;;;21.10;40.20;;;;;;5073256;28;20023;-39
2022/03/27 03:43:19;;;;;;;;;;;21.10;40.20;;;;;;5073024;28;19968;-40
2022/03/27 03:45:46;;;;;;;;;;;21.10;40.20;;;;;;5073787;28;20400;-40
2022/03/27 03:48:13;;;;;;;;;;;21.10;40.20;;;;;;5072928;28;19931;-39
2022/03/27 03:50:40;;;;;;;;;;;21.10;40.20;;;;;;5072795;28;19980;-41
2022/03/27 03:53:07;;;;;;;;;;;21.10;40.20;;;;;;5053728;28;20010;-41
2022/03/27 03:55:34;;;;;;;;;;;21.10;40.20;;;;;;5072853;28;19931;-39
2022/03/27 03:58:02;;;;;;;;;;;21.10;40.20;;;;;;5074606;28;19960;-39
2022/03/27 04:00:30;;;;;;;;;;;21.10;40.20;;;;;;5076390;28;19924;-42
2022/03/27 04:02:57;;;;;;;;;;;21.10;40.20;;;;;;5076269;28;19978;-39
2022/03/27 04:05:24;;;;;;;;;;;21.10;40.20;;;;;;5077195;28;20426;-39
2022/03/27 04:07:51;;;;;;;;;;;21.10;40.20;;;;;;5074772;28;19964;-41
2022/03/27 04:10:19;;;;;;;;;;;21.10;40.20;;;;;;5076251;28;20038;-39
2022/03/27 04:12:46;;;;;;;;;;;21.10;40.20;;;;;;5059432;28;19972;-39
2022/03/27 04:15:13;;;;;;;;;;;21.10;40.20;;;;;;5076200;28;19924;-38
2022/03/27 04:17:47;;;;;;;;;;;21.10;40.20;;;;;;5076984;28;19932;-39
2022/03/27 04:20:14;;;;;;;;;;;21.00;40.10;;;;;;5076041;28;20019;-39
2022/03/27 04:22:42;;;;;;;;;;;21.10;40.20;;;;;;5056600;28;20021;-39
2022/03/27 04:25:12;;;;;;;;;;;21.10;40.20;;;;;;5076065;28;20346;-40
2022/03/27 04:27:39;;;;;;;;;;;21.10;40.20;;;;;;5075994;28;19983;-39
2022/03/27 04:30:08;;;;;;;;;;;21.10;40.20;;;;;;5076239;28;20027;-40
2022/03/27 04:32:38;;;;;;;;;;;21.00;40.20;;;;;;5076075;28;20020;-40
2022/03/27 04:35:06;;;;;;;;;;;21.00;40.20;;;;;;5076158;28;20288;-39
2022/03/27 04:37:43;;;;;;;;;;;21.00;40.20;;;;;;5074353;28;19936;-45
2022/03/27 04:40:13;;;;;;;;;;;21.00;40.20;;;;;;5075652;28;20027;-42
2022/03/27 04:42:43;;;;;;;;;;;21.00;40.20;;;;;;5075685;28;19932;-42
2022/03/27 04:45:11;;;;;;;;;;;21.00;40.20;;;;;;5076457;28;19970;-47
2022/03/27 04:47:38;;;;;;;;;;;21.00;40.10;;;;;;5075886;28;19963;-46
2022/03/27 04:50:06;;;;;;;;;;;21.00;40.10;;;;;;5075575;28;20373;-46
2022/03/27 04:52:33;;;;;;;;;;;21.00;40.10;;;;;;5074072;28;19970;-43
2022/03/27 04:55:00;;;;;;;;;;;21.00;40.70;;;;;;5075769;28;20335;-45
2022/03/27 04:57:33;;;;;;;;;;;21.00;40.10;;;;;;5075470;28;19960;-46
2022/03/27 05:00:00;;;;;;;;;;;21.00;40.10;;;;;;5075593;28;19978;-41
2022/03/27 05:02:28;;;;;;;;;;;21.00;40.10;;;;;;5075491;28;19956;-43
2022/03/27 05:04:55;;;;;;;;;;;21.00;40.10;;;;;;5075578;28;20307;-44
2022/03/27 05:07:22;;;;;;;;;;;21.00;40.10;;;;;;5075482;28;20324;-42
2022/03/27 05:09:49;;;;;;;;;;;21.00;40.10;;;;;;5072962;28;20015;-41
2022/03/27 05:12:16;;;;;;;;;;;21.00;40.10;;;;;;5075459;28;20341;-40
2022/03/27 05:14:43;;;;;;;;;;;21.00;40.10;;;;;;5075394;28;19924;-45
2022/03/27 05:17:10;;;;;;;;;;;21.00;40.10;;;;;;5074974;28;19972;-44
2022/03/27 05:19:38;;;;;;;;;;;21.00;40.10;;;;;;5074926;28;20395;-41
2022/03/27 05:22:08;;;;;;;;;;;21.00;40.00;;;;;;5074476;28;20372;-44
2022/03/27 05:24:35;;;;;;;;;;;21.00;40.00;;;;;;5073583;28;19978;-39
2022/03/27 05:27:02;;;;;;;;;;;21.00;40.00;;;;;;5074804;28;19975;-44
2022/03/27 05:29:28;;;;;;;;;;;21.00;40.00;;;;;;5075093;28;19924;-42
2022/03/27 05:31:57;;;;;;;;;;;21.10;40.10;;;;;;5056875;28;20372;-39
2022/03/27 05:34:24;;;;;;;;;;;21.10;40.10;;;;;;5074620;28;19947;-44
2022/03/27 05:36:51;;;;;;;;;;;21.10;40.00;;;;;;5074916;28;19967;-39
2022/03/27 05:39:19;;;;;;;;;;;21.10;40.00;;;;;;5062663;28;20012;-40
2022/03/27 05:41:46;;;;;;;;;;;21.10;40.60;;;;;;5054794;28;20277;-39
2022/03/27 05:44:13;;;;;;;;;;;21.10;40.00;;;;;;5037136;28;19929;-39
2022/03/27 05:46:40;;;;;;;;;;;21.10;40.00;;;;;;5053299;28;19936;-42
2022/03/27 05:49:07;;;;;;;;;;;21.10;40.00;;;;;;5054714;28;19961;-39
2022/03/27 05:51:34;;;;;;;;;;;21.10;40.00;;;;;;5054206;28;20043;-39
2022/03/27 05:54:01;;;;;;;;;;;21.10;40.00;;;;;;5060797;28;20423;-40
2022/03/27 05:56:28;;;;;;;;;;;21.10;40.00;;;;;;5074555;28;20296;-41
2022/03/27 05:58:55;;;;;;;;;;;21.10;40.00;;;;;;5074154;28;19925;-42
2022/03/27 06:01:22;;;;;;;;;;;21.10;40.00;;;;;;5073963;28;20386;-39
2022/03/27 06:03:49;;;;;;;;;;;21.10;40.00;;;;;;5074398;28;19924;-40
2022/03/27 06:06:16;;;;;;;;;;;21.10;40.00;;;;;;5074090;28;19925;-39
2022/03/27 06:08:43;;;;;;;;;;;21.10;40.00;;;;;;5068885;28;19929;-40
2022/03/27 06:11:10;;;;;;;;;;;21.10;40.00;;;;;;5053981;28;20376;-40
2022/03/27 06:13:37;;;;;;;;;;;21.10;39.90;;;;;;5054326;28;19931;-41
2022/03/27 06:16:04;;;;;;;;;;;21.10;39.90;;;;;;5053959;28;19932;-38
2022/03/27 06:18:31;;;;;;;;;;;21.10;39.90;;;;;;5036227;28;19959;-41
2022/03/27 06:20:58;;;;;;;;;;;21.10;39.80;;;;;;5053696;28;19968;-39
2022/03/27 06:23:25;;;;;;;;;;;21.10;39.80;;;;;;5053142;28;20012;-41
2022/03/27 06:25:52;;;;;;;;;;;21.10;39.80;;;;;;5073384;28;19928;-39
2022/03/27 06:28:19;;;;;;;;;;;21.20;39.90;;;;;;5074051;28;19924;-40
2022/03/27 06:30:46;;;;;;;;;;;21.20;39.90;;;;;;5074020;28;20015;-40
2022/03/27 06:33:14;;;;;;;;;;;21.10;39.80;;;;;;5073569;28;19966;-40
2022/03/27 06:35:41;;;;;;;;;;;21.20;39.80;;;;;;5074720;28;20321;-42
2022/03/27 06:38:14;;;;;;;;;;;21.20;39.80;;;;;;5073974;28;19925;-39
2022/03/27 06:40:41;;;;;;;;;;;21.20;39.80;;;;;;5071947;28;20431;-38
2022/03/27 06:43:07;;;;;;;;;;;21.20;39.80;;;;;;5073618;28;19926;-39
2022/03/27 06:45:35;;;;;;;;;;;21.20;39.80;;;;;;5073537;28;19924;-43
2022/03/27 06:48:02;;;;;;;;;;;21.20;39.80;;;;;;5073506;28;19970;-39
2022/03/27 06:50:29;;;;;;;;;;;21.20;39.70;;;;;;5073734;28;20272;-39
2022/03/27 06:52:56;;;;;;;;;;;21.20;39.70;;;;;;5055792;28;19964;-40
2022/03/27 06:55:23;;;;;;;;;;;21.20;39.70;;;;;;5058884;28;19967;-39
2022/03/27 06:57:50;;;;;;;;;;;21.20;39.70;;;;;;5053755;28;20096;-43
2022/03/27 07:03:04;;;;;;;;;;;21.20;39.60;;;;;;5053271;28;19929;-42
2022/03/27 07:05:43;;;;;;;;;;;21.20;39.60;;;;;;5053296;28;19925;-39
2022/03/27 07:08:14;;;;;;;;;;;21.20;39.60;;;;;;5053342;28;19925;-39
2022/03/27 07:10:42;;;;;;;;;;;21.20;39.60;;;;;;5067217;28;19928;-38
2022/03/27 07:13:10;;;;;;;;;;;21.20;39.60;;;;;;5055575;28;19932;-40
2022/03/27 07:15:37;;;;;;;;;;;21.20;39.60;;;;;;5073581;28;19924;-39
2022/03/27 07:18:05;;;;;;;;;;;21.20;39.60;;;;;;5073568;28;20363;-41
2022/03/27 07:20:33;;;;;;;;;;;21.20;39.60;;;;;;5072952;28;19924;-39
2022/03/27 07:23:02;;;;;;;;;;;21.20;39.60;;;;;;5073042;28;20016;-42
2022/03/27 07:25:30;;;;;;;;;;;21.30;39.60;;;;;;5071971;28;20354;-38
2022/03/27 07:27:57;;;;;;;;;;;21.20;39.60;;;;;;5073116;28;19971;-39
2022/03/27 07:30:24;;;;;;;;;;;21.30;39.60;;;;;;5073102;28;19970;-39
2022/03/27 07:32:52;;;;;;;;;;;21.30;39.60;;;;;;5074613;28;19959;-38
2022/03/27 07:35:19;;;;;;;;;;;21.30;39.60;;;;;;5077272;28;19977;-40
2022/03/27 07:37:47;;;;;;;;;;;21.30;39.60;;;;;;5076866;28;20415;-43
2022/03/27 07:40:14;;;;;;;;;;;21.30;39.60;;;;;;5075365;28;19924;-39
2022/03/27 07:42:42;;;;;;;;;;;21.30;39.60;;;;;;5076732;28;20032;-38
2022/03/27 07:45:09;;;;;;;;;;;21.30;39.60;;;;;;5076678;28;19967;-39
2022/03/27 07:47:37;;;;;;;;;;;21.30;39.50;;;;;;5077013;28;19970;-38
2022/03/27 07:50:05;;;;;;;;;;;21.30;39.50;;;;;;5076652;28;19979;-39
2022/03/27 07:52:32;;;;;;;;;;;21.30;39.50;;;;;;5059088;28;20045;-38
2022/03/27 07:54:59;;;;;;;;;;;21.30;39.50;;;;;;5075130;28;19924;-39
2022/03/27 07:57:27;;;;;;;;;;;21.30;39.40;;;;;;5076832;28;19967;-39
2022/03/27 07:59:54;;;;;;;;;;;21.30;39.40;;;;;;5076789;28;19978;-45
2022/03/27 08:02:21;;;;;;;;;;;21.30;39.40;;;;;;5076287;28;19931;-44
2022/03/27 08:04:52;;;;;;;;;;;21.30;39.40;;;;;;5077328;28;19928;-41
2022/03/27 08:07:19;;;;;;;;;;;21.30;39.40;;;;;;5076683;28;19994;-47
2022/03/27 08:09:46;;;;;;;;;;;21.30;39.30;;;;;;5075108;28;19928;-42
2022/03/27 08:12:13;;;;;;;;;;;21.30;39.30;;;;;;5076600;28;19974;-42
2022/03/27 08:14:43;;;;;;;;;;;21.30;39.30;;;;;;5076522;28;20015;-40
2022/03/27 08:17:10;;;;;;;;;;;21.40;39.30;;;;;;5076535;28;19935;-47
2022/03/27 08:19:38;;;;;;;;;;;21.40;39.30;;;;;;5076198;28;20065;-43
2022/03/27 08:22:05;;;;;;;;;;;21.40;39.30;;;;;;5076030;28;19925;-45
2022/03/27 08:24:33;;;;;;;;;;;21.40;39.20;;;;;;5076057;28;19936;-43
2022/03/27 08:27:02;;;;;;;;;;;21.40;39.20;;;;;;5073930;28;19970;-40
2022/03/27 08:29:31;;;;;;;;;;;21.40;39.20;;;;;;5076278;28;20011;-47
2022/03/27 08:32:00;;;;;;;;;;;21.40;39.20;;;;;;5075778;28;19926;-46
2022/03/27 08:34:29;;;;;;;;;;;21.40;39.20;;;;;;5076192;28;20007;-44
2022/03/27 08:36:57;;;;;;;;;;;21.40;39.20;;;;;;5075878;28;20022;-39
2022/03/27 08:39:24;;;;;;;;;;;21.40;39.10;;;;;;5076080;28;20011;-40
2022/03/27 08:41:54;;;;;;;;;;;21.40;39.20;;;;;;5074064;28;19970;-44
2022/03/27 08:44:22;;;;;;;;;;;21.40;39.10;;;;;;5074857;28;19928;-46
2022/03/27 08:46:50;;;;;;;;;;;21.40;39.10;;;;;;5075976;28;19986;-39
2022/03/27 08:49:17;;;;;;;;;;;21.40;39.10;;;;;;5075920;28;19930;-41
2022/03/27 08:51:48;;;;;;;;;;;21.50;39.20;;;;;;5075389;28;19932;-40
2022/03/27 08:54:22;;;;;;;;;;;21.50;39.10;;;;;;5075502;28;19932;-41
2022/03/27 08:57:09;;;;;;;;;;;21.50;39.10;;;;;;5074404;28;19924;-40
2022/03/27 08:59:37;;;;;;;;;;;21.50;39.10;;;;;;5064966;28;20019;-43
2022/03/27 09:02:04;;;;;;;;;;;21.50;39.10;;;;;;5075175;28;19924;-41
2022/03/27 09:04:31;;;;;;;;;;;21.50;39.10;;;;;;5057577;28;20011;-45
2022/03/27 09:07:03;;;;;;;;;;;21.50;39.10;;;;;;5075529;28;19925;-39
2022/03/27 09:09:35;;;;;;;;;;;21.50;39.00;;;;;;5075111;28;20455;-40
2022/03/27 09:12:03;;;;;;;;;;;21.50;39.00;;;;;;5073631;28;19936;-42
2022/03/27 09:14:33;;;;;;;;;;;21.50;39.00;;;;;;5075409;28;19978;-39
2022/03/27 09:17:05;;;;;;;;;;;21.50;39.00;;;;;;5075056;28;20356;-39
2022/03/27 09:19:36;;;;;;;;;;;21.60;39.10;;;;;;5075233;28;20027;-40
2022/03/27 09:22:12;;;;;;;;;;;21.60;39.10;;;;;;5074512;28;20425;-39
2022/03/27 09:24:40;;;;;;;;;;;21.60;39.00;;;;;;5074948;28;19936;-39
2022/03/27 09:27:07;;;;;;;;;;;21.60;39.00;;;;;;5073607;28;19970;-40
2022/03/27 09:29:52;;;;;;;;;;;21.60;39.00;;;;;;5074795;28;19925;-39
2022/03/27 09:32:31;;;;;;;;;;;21.60;39.00;;;;;;5074624;28;19929;-40
2022/03/27 09:34:59;;;;;;;;;;;21.60;39.00;;;;;;5074654;28;19932;-44
2022/03/27 09:37:33;;;;;;;;;;;21.60;39.00;;;;;;5074583;28;19951;-42
2022/03/27 09:40:00;;;;;;;;;;;21.60;39.00;;;;;;5074536;28;19924;-39
2022/03/27 09:42:28;;;;;;;;;;;21.60;39.00;;;;;;5072959;28;19924;-41
2022/03/27 09:45:15;;;;;;;;;;;21.60;39.00;;;;;;5074749;28;19979;-39
2022/03/27 09:47:43;;;;;;;;;;;21.60;39.00;;;;;;5074297;28;19932;-39
2022/03/27 09:50:30;;;;;;;;;;;21.70;39.00;;;;;;5074340;28;20023;-39
2022/03/27 09:53:16;;;;;;;;;;;21.60;39.00;;;;;;5074279;28;19993;-40
2022/03/27 09:55:43;;;;;;;;;;;21.70;39.00;;;;;;5072877;28;19971;-40
2022/03/27 09:58:12;;;;;;;;;;;21.70;39.00;;;;;;5074373;28;19977;-40
2022/03/27 10:00:39;;;;;;;;;;;21.70;39.00;;;;;;5074231;28;19970;-39
2022/03/27 10:03:26;;;;;;;;;;;21.60;38.90;;;;;;5074941;28;20398;-39
2022/03/27 10:05:53;;;;;;;;;;;21.70;39.00;;;;;;5074102;28;19925;-38
2022/03/27 10:08:20;;;;;;;;;;;21.70;39.00;;;;;;5074373;28;19959;-40
2022/03/27 10:10:47;;;;;;;;;;;21.70;39.00;;;;;;5073834;28;19924;-41
2022/03/27 10:13:14;;;;;;;;;;;21.70;39.00;;;;;;5053443;28;19951;-39
2022/03/27 10:15:41;;;;;;;;;;;21.70;39.00;;;;;;5054269;28;19925;-39
2022/03/27 10:18:15;;;;;;;;;;;21.70;39.00;;;;;;5054250;28;20331;-38
2022/03/27 10:20:43;;;;;;;;;;;21.70;39.00;;;;;;5053590;28;19974;-39
2022/03/27 10:23:14;;;;;;;;;;;21.70;38.90;;;;;;5053836;28;19968;-42
2022/03/27 10:25:42;;;;;;;;;;;21.70;38.90;;;;;;5053754;28;20380;-42
2022/03/27 10:28:09;;;;;;;;;;;21.70;38.90;;;;;;5053437;28;19925;-40
2022/03/27 10:30:36;;;;;;;;;;;21.70;38.90;;;;;;5054848;28;19967;-40
2022/03/27 10:33:05;;;;;;;;;;;21.80;39.00;;;;;;5053894;28;19995;-45
2022/03/27 10:35:34;;;;;;;;;;;21.80;39.00;;;;;;5053655;28;19929;-43
2022/03/27 10:38:01;;;;;;;;;;;21.80;39.00;;;;;;5053975;28;19925;-39
2022/03/27 10:40:40;;;;;;;;;;;21.80;39.00;;;;;;5052740;28;19967;-41
2022/03/27 10:43:43;;;;;;;;;;;21.80;39.00;;;;;;5052466;28;19924;-39
2022/03/27 10:46:15;;;;;;;;;;;21.80;39.00;;;;;;5012097;28;19930;-45
2022/03/27 10:48:44;;;;;;;;;;;21.70;38.90;;;;;;5011834;28;19929;-40
2022/03/27 10:51:30;;;;;;;;;;;21.80;39.00;;;;;;5011611;28;20343;-43
2022/03/27 10:54:05;;;;;;;;;;;21.70;38.90;;;;;;5011914;28;19965;-42
2022/03/27 10:56:43;;;;;;;;;;;21.80;39.00;;;;;;5012503;28;19930;-42
2022/03/27 10:59:20;;;;;;;;;;;21.80;39.00;;;;;;5031484;28;19983;-39
2022/03/27 11:01:49;;;;;;;;;;;21.80;39.00;;;;;;5015195;28;19984;-43
2022/03/27 11:04:17;;;;;;;;;;;21.80;39.00;;;;;;5031432;28;19925;-39
2022/03/27 11:06:51;;;;;;;;;;;21.80;39.00;;;;;;5031437;28;19971;-41
2022/03/27 11:09:31;;;;;;;;;;;21.80;39.00;;;;;;5035470;28;19951;-42
2022/03/27 11:11:59;;;;;;;;;;;21.80;39.00;;;;;;5034137;28;19929;-43
2022/03/27 11:14:46;;;;;;;;;;;21.80;39.10;;;;;;5035386;28;20373;-45
2022/03/27 11:17:13;;;;;;;;;;;21.80;39.10;;;;;;5035355;28;20365;-43
2022/03/27 11:19:42;;;;;;;;;;;21.80;39.00;;;;;;5041745;28;19970;-44
2022/03/27 11:22:28;;;;;;;;;;;21.80;39.10;;;;;;5056928;28;19925;-46
2022/03/27 11:25:13;;;;;;;;;;;21.80;39.10;;;;;;5057209;28;19925;-42
2022/03/27 11:27:55;;;;;;;;;;;21.80;39.10;;;;;;5056978;28;19924;-43
2022/03/27 11:30:22;;;;;;;;;;;21.80;39.10;;;;;;5057088;28;19975;-44
2022/03/27 11:33:08;;;;;;;;;;;21.80;39.10;;;;;;5056893;28;19983;-45
2022/03/27 11:35:35;;;;;;;;;;;21.70;39.00;;;;;;5057262;28;19925;-41
2022/03/27 11:38:21;;;;;;;;;;;21.80;39.10;;;;;;5057246;28;19954;-43
2022/03/27 11:40:48;;;;;;;;;;;21.80;39.10;;;;;;5056010;28;19925;-39
2022/03/27 11:43:25;;;;;;;;;;;21.70;39.00;;;;;;5067498;28;19950;-42
2022/03/27 11:45:53;;;;;;;;;;;21.80;39.10;;;;;;5059376;28;19971;-40
2022/03/27 11:48:19;;;;;;;;;;;21.80;39.10;;;;;;5077081;28;20261;-39
2022/03/27 11:50:46;;;;;;;;;;;21.80;39.10;;;;;;5059173;28;19925;-38
2022/03/27 11:53:14;;;;;;;;;;;21.80;39.10;;;;;;5076643;28;19983;-40
2022/03/27 11:55:40;;;;;;;;;;;21.80;39.10;;;;;;5076901;28;20011;-40
2022/03/27 11:58:08;;;;;;;;;;;21.80;39.20;;;;;;5066187;28;19929;-39
2022/03/27 12:00:42;;;;;;;;;;;21.80;39.10;;;;;;5056555;28;19925;-39
2022/03/27 12:03:22;;;;;;;;;;;21.80;39.10;;;;;;5056423;28;19935;-42
2022/03/27 12:05:50;;;;;;;;;;;21.80;39.10;;;;;;5056456;28;19925;-42
2022/03/27 12:08:17;;;;;;;;;;;21.80;39.10;;;;;;5056673;28;19924;-41
2022/03/27 12:10:57;;;;;;;;;;;21.80;39.10;;;;;;5056634;28;19928;-43
2022/03/27 12:13:24;;;;;;;;;;;21.80;39.10;;;;;;5066148;28;19925;-39
2022/03/27 12:15:52;;;;;;;;;;;21.80;39.10;;;;;;5076083;28;19925;-40
2022/03/27 12:18:38;;;;;;;;;;;21.80;39.10;;;;;;5075918;28;19931;-43
2022/03/27 12:21:06;;;;;;;;;;;21.80;39.10;;;;;;5076048;28;20352;-44
2022/03/27 12:23:35;;;;;;;;;;;21.80;39.10;;;;;;5076065;28;19924;-40
2022/03/27 12:31:58;;;;;;;;;;;21.80;39.10;;;;;;5076219;28;19924;-38
2022/03/27 12:34:26;;;;;;;;;;;21.80;39.00;;;;;;5076226;28;19924;-41
2022/03/27 12:37:09;;;;;;;;;;;21.80;39.10;;;;;;5075863;28;20438;-41
2022/03/27 12:39:36;;;;;;;;;;;21.80;39.10;;;;;;5076117;28;19964;-39
2022/03/27 12:42:03;;;;;;;;;;;21.80;39.10;;;;;;5076019;28;20321;-40
2022/03/27 12:44:52;;;;;;;;;;;21.80;39.10;;;;;;5074139;28;20037;-42
2022/03/27 12:47:50;;;;;;;;;;;21.80;39.10;;;;;;5076310;28;20342;-38
2022/03/27 12:50:26;;;;;;;;;;;21.80;39.00;;;;;;5072879;28;19977;-39
2022/03/27 12:52:54;;;;;;;;;;;21.80;39.10;;;;;;5075413;28;20015;-41
2022/03/27 12:55:23;;;;;;;;;;;21.80;39.10;;;;;;5075862;28;19932;-40
2022/03/27 12:57:50;;;;;;;;;;;21.80;39.60;;;;;;5073806;28;19939;-44
2022/03/27 13:00:18;;;;;;;;;;;21.80;39.00;;;;;;5075725;28;19978;-39
2022/03/27 13:02:45;;;;;;;;;;;21.80;39.00;;;;;;5057526;28;19925;-45
2022/03/27 13:05:16;;;;;;;;;;;21.80;39.00;;;;;;5057969;28;20334;-41
2022/03/27 13:07:58;;;;;;;;;;;21.80;39.00;;;;;;5075587;28;19928;-38
2022/03/27 13:10:26;;;;;;;;;;;21.80;39.10;;;;;;5075159;28;19924;-40
2022/03/27 13:13:01;;;;;;;;;;;21.80;39.00;;;;;;5072751;28;19929;-40
2022/03/27 13:15:35;;;;;;;;;;;21.80;39.00;;;;;;5055214;28;19967;-38
2022/03/27 13:18:10;;;;;;;;;;;21.80;39.00;;;;;;5055115;28;20364;-40
2022/03/27 13:20:37;;;;;;;;;;;21.80;39.00;;;;;;5054847;28;19928;-38
2022/03/27 13:23:06;;;;;;;;;;;21.80;39.00;;;;;;5054937;28;19925;-40
2022/03/27 13:25:33;;;;;;;;;;;21.80;39.00;;;;;;5055233;28;19932;-39
2022/03/27 13:27:59;;;;;;;;;;;21.70;39.00;;;;;;5055085;28;19956;-40
2022/03/27 13:30:27;;;;;;;;;;;21.80;39.10;;;;;;5054209;28;19972;-41
2022/03/27 13:32:58;;;;;;;;;;;21.80;39.00;;;;;;5054971;28;20016;-40
2022/03/27 13:35:25;;;;;;;;;;;21.70;39.00;;;;;;5054741;28;20450;-39
2022/03/27 13:37:53;;;;;;;;;;;21.80;39.00;;;;;;5054585;28;19925;-43
2022/03/27 13:40:21;;;;;;;;;;;21.80;39.00;;;;;;5054691;28;20091;-39
2022/03/27 13:42:58;;;;;;;;;;;21.80;39.00;;;;;;5054487;28;19924;-43
2022/03/27 13:45:26;;;;;;;;;;;21.80;39.00;;;;;;5072950;28;20012;-39
2022/03/27 13:47:55;;;;;;;;;;;21.70;39.00;;;;;;5074455;28;19924;-39
2022/03/27 13:50:23;;;;;;;;;;;21.80;39.00;;;;;;5074411;28;20403;-39
2022/03/27 13:52:50;;;;;;;;;;;21.80;39.00;;;;;;5056798;28;19925;-39
2022/03/27 13:55:18;;;;;;;;;;;21.80;39.00;;;;;;5056653;28;19978;-40
2022/03/27 13:57:44;;;;;;;;;;;21.70;39.00;;;;;;5074621;28;20010;-41
2022/03/27 14:00:12;;;;;;;;;;;21.80;39.00;;;;;;5056765;28;19929;-39
2022/03/27 14:02:38;;;;;;;;;;;21.80;39.00;;;;;;5054370;28;19925;-39
2022/03/27 14:05:06;;;;;;;;;;;21.80;39.10;;;;;;5054506;28;19925;-39
2022/03/27 14:07:33;;;;;;;;;;;21.70;39.00;;;;;;5054141;28;19929;-39
2022/03/27 14:10:00;;;;;;;;;;;21.70;39.00;;;;;;5054409;28;19925;-40
2022/03/27 14:12:28;;;;;;;;;;;21.70;39.00;;;;;;5054097;28;19925;-39
2022/03/27 14:14:55;;;;;;;;;;;21.70;39.00;;;;;;5065541;28;20389;-40
2022/03/27 14:17:22;;;;;;;;;;;21.80;39.00;;;;;;5074296;28;19925;-39
2022/03/27 14:19:49;;;;;;;;;;;21.80;39.10;;;;;;5074237;28;19925;-40
2022/03/27 14:22:16;;;;;;;;;;;21.80;39.00;;;;;;5073566;28;19932;-40
2022/03/27 14:24:43;;;;;;;;;;;21.80;39.00;;;;;;5073798;28;20418;-40
2022/03/27 14:27:10;;;;;;;;;;;21.70;39.00;;;;;;5073799;28;19933;-39
2022/03/27 14:29:37;;;;;;;;;;;21.80;39.00;;;;;;5072675;28;19924;-39
2022/03/27 14:32:04;;;;;;;;;;;21.70;39.00;;;;;;5055914;28;19974;-41
2022/03/27 14:34:31;;;;;;;;;;;21.70;39.00;;;;;;5055994;28;19947;-40
2022/03/27 14:36:58;;;;;;;;;;;21.70;39.00;;;;;;5074000;28;19970;-40